Euship II — OMGQ — position and weather

sailwx.info

Track history (hours):
 
Tides and Currents Weather Stations Pressure Air Temp Water Temp Dewpoint Dewpoint Depression Visibility Wind Speed Wind Dir Waves Ship Positions

Euship II

Last reported at 2017-Oct-23 02:30 UTC. Time now 2017-Oct-23 02:40 UTC.
Position N 44°44' E 021°36'.

Length 86 m; draft 1.9 m.

Type: Wing in ground effect craft. MMSI: 267210039.

Date/timePositionNaut miles runAvg speedWind from/ knotsBaromVisibWave heightAir tempDewpointWater temp
2017-Oct-23 02:30N 44°44' E 021°36'0 0.0
2017-Oct-23 01:59N 44°44' E 021°36'0 0.0
2017-Oct-23 01:30N 44°44' E 021°36'0 0.0
2017-Oct-23 00:59N 44°44' E 021°36'0 0.0
2017-Oct-23 00:30N 44°44' E 021°36'0 0.0
2017-Oct-22 23:59N 44°44' E 021°36'0 0.0
2017-Oct-22 23:30N 44°44' E 021°36'0 0.0
2017-Oct-22 22:48N 44°44' E 021°36'0 0.0
2017-Oct-22 22:30N 44°44' E 021°36'0 0.0
2017-Oct-22 21:58N 44°44' E 021°36'0 0.0
2017-Oct-22 21:31N 44°44' E 021°36'0 0.0
2017-Oct-22 20:58N 44°44' E 021°36'0 0.0
2017-Oct-22 20:31N 44°44' E 021°36'0 0.1
2017-Oct-22 19:58N 44°44' E 021°36'0 0.0
2017-Oct-22 19:31N 44°44' E 021°36'0 0.0
2017-Oct-22 18:58N 44°44' E 021°36'0 0.0
2017-Oct-22 18:30N 44°44' E 021°36'0 0.0
2017-Oct-22 17:58N 44°44' E 021°36'0 0.0
2017-Oct-22 17:31N 44°44' E 021°36'0 0.0
2017-Oct-22 16:55N 44°44' E 021°36'0 0.0
2017-Oct-22 16:31N 44°44' E 021°36'0 0.0
2017-Oct-22 16:01N 44°44' E 021°36'0 0.0
2017-Oct-22 15:31N 44°44' E 021°36'0 0.0
2017-Oct-22 15:01N 44°44' E 021°36'2 1.4
2017-Oct-22 13:42N 44°43' E 021°38'1 4.3
2017-Oct-22 13:31N 44°42' E 021°39'2 4.5
2017-Oct-22 13:01N 44°40' E 021°41'15 4.1
2017-Oct-22 09:27N 44°36' E 022°01'2 4.4
2017-Oct-22 09:00N 44°35' E 022°02'2 4.5
2017-Oct-22 08:31N 44°32' E 022°03'2 4.7
2017-Oct-22 08:01N 44°31' E 022°05'2 4.9
2017-Oct-22 07:31N 44°29' E 022°07'2 4.8
2017-Oct-22 07:01N 44°29' E 022°10'  
Track history (hours):
 
Tides and Currents Weather Stations Pressure Air Temp Water Temp Dewpoint Dewpoint Depression Visibility Wind Speed Wind Dir Waves Ship Positions

Euship II

Last reported at 2017-Oct-23 02:30 UTC. Time now 2017-Oct-23 02:40 UTC.
Position N 44°44' E 021°36'.

Length 86 m; draft 1.9 m.

Type: Wing in ground effect craft. MMSI: 267210039.

Date/timePositionNaut miles runAvg speedWind from/ knotsBaromVisibWave heightAir tempDewpointWater temp
2017-Oct-23 02:30N 44°44' E 021°36'0 0.0
2017-Oct-23 01:59N 44°44' E 021°36'0 0.0
2017-Oct-23 01:30N 44°44' E 021°36'0 0.0
2017-Oct-23 00:59N 44°44' E 021°36'0 0.0
2017-Oct-23 00:30N 44°44' E 021°36'0 0.0
2017-Oct-22 23:59N 44°44' E 021°36'0 0.0
2017-Oct-22 23:30N 44°44' E 021°36'0 0.0
2017-Oct-22 22:48N 44°44' E 021°36'0 0.0
2017-Oct-22 22:30N 44°44' E 021°36'0 0.0
2017-Oct-22 21:58N 44°44' E 021°36'0 0.0
2017-Oct-22 21:31N 44°44' E 021°36'0 0.0
2017-Oct-22 20:58N 44°44' E 021°36'0 0.0
2017-Oct-22 20:31N 44°44' E 021°36'0 0.1
2017-Oct-22 19:58N 44°44' E 021°36'0 0.0
2017-Oct-22 19:31N 44°44' E 021°36'0 0.0
2017-Oct-22 18:58N 44°44' E 021°36'0 0.0
2017-Oct-22 18:30N 44°44' E 021°36'0 0.0
2017-Oct-22 17:58N 44°44' E 021°36'0 0.0
2017-Oct-22 17:31N 44°44' E 021°36'0 0.0
2017-Oct-22 16:55N 44°44' E 021°36'0 0.0
2017-Oct-22 16:31N 44°44' E 021°36'0 0.0
2017-Oct-22 16:01N 44°44' E 021°36'0 0.0
2017-Oct-22 15:31N 44°44' E 021°36'0 0.0
2017-Oct-22 15:01N 44°44' E 021°36'2 1.4
2017-Oct-22 13:42N 44°43' E 021°38'1 4.3
2017-Oct-22 13:31N 44°42' E 021°39'2 4.5
2017-Oct-22 13:01N 44°40' E 021°41'15 4.1
2017-Oct-22 09:27N 44°36' E 022°01'2 4.4
2017-Oct-22 09:00N 44°35' E 022°02'2 4.5
2017-Oct-22 08:31N 44°32' E 022°03'2 4.7
2017-Oct-22 08:01N 44°31' E 022°05'2 4.9
2017-Oct-22 07:31N 44°29' E 022°07'2 4.8
2017-Oct-22 07:01N 44°29' E 022°10'  

Dump ship's entire track history